Time,TemperatureF,DewpointF,PressureIn,WindDirection,WindDirectionDegrees,WindSpeedMPH,WindSpeedGustMPH,Humidity,HourlyPrecipIn,Conditions,Clouds,dailyrainin,SoftwareType,DateUTC
2013-07-16 00:01:00,72.5,71.0,30.24,ESE,104,0.0,0.0,95,0.00,,---,0.00,VWS V14.00,2013-07-16 04:01:00,
2013-07-16 00:06:00,72.4,70.9,30.24,ESE,104,0.0,0.0,95,0.00,,---,0.00,VWS V14.00,2013-07-16 04:06:00,
2013-07-16 00:11:00,72.4,70.9,30.24,ESE,104,0.0,0.0,95,0.00,,---,0.00,VWS V14.00,2013-07-16 04:11:00,
2013-07-16 00:16:00,72.4,70.9,30.24,ESE,104,0.0,0.0,95,0.00,,---,0.00,VWS V14.00,2013-07-16 04:16:00,
2013-07-16 00:21:00,72.3,70.8,30.24,ESE,104,0.0,0.0,95,0.00,,---,0.00,VWS V14.00,2013-07-16 04:21:00,
2013-07-16 00:26:00,72.2,70.7,30.24,ESE,104,0.0,0.0,95,0.00,,---,0.00,VWS V14.00,2013-07-16 04:26:00,
2013-07-16 00:31:00,72.2,70.7,30.24,ESE,104,0.0,0.0,95,0.00,,---,0.00,VWS V14.00,2013-07-16 04:31:00,
2013-07-16 00:36:00,72.1,70.6,30.24,ESE,104,0.0,0.0,95,0.00,,---,0.00,VWS V14.00,2013-07-16 04:36:00,
2013-07-16 00:41:00,72.0,70.5,30.24,ESE,104,0.0,0.0,95,0.00,,---,0.00,VWS V14.00,2013-07-16 04:41:00,
2013-07-16 00:46:00,72.0,70.5,30.24,ESE,104,0.0,0.0,95,0.00,,---,0.00,VWS V14.00,2013-07-16 04:46:00,
2013-07-16 00:51:00,71.9,70.4,30.24,ESE,104,0.0,0.0,95,0.00,,---,0.00,VWS V14.00,2013-07-16 04:51:00,
2013-07-16 00:56:00,71.8,70.6,30.24,ESE,104,0.0,0.0,96,0.00,,---,0.00,VWS V14.00,2013-07-16 04:56:00,
2013-07-16 01:01:00,71.7,70.5,30.24,ESE,104,0.0,0.0,96,0.00,,---,0.00,VWS V14.00,2013-07-16 05:01:00,
2013-07-16 01:06:00,71.7,70.5,30.24,ESE,104,0.0,0.0,96,0.00,,---,0.00,VWS V14.00,2013-07-16 05:06:00,
2013-07-16 01:11:00,71.6,70.4,30.24,ESE,104,0.0,0.0,96,0.00,,---,0.00,VWS V14.00,2013-07-16 05:11:00,
2013-07-16 01:16:00,71.5,70.0,30.24,ESE,104,0.0,0.0,95,0.00,,---,0.00,VWS V14.00,2013-07-16 05:16:00,
2013-07-16 01:21:00,71.4,69.9,30.24,ESE,104,0.0,0.0,95,0.00,,---,0.00,VWS V14.00,2013-07-16 05:21:00,
2013-07-16 01:26:00,71.4,70.2,30.24,ESE,104,0.0,0.0,96,0.00,,---,0.00,VWS V14.00,2013-07-16 05:26:00,
2013-07-16 01:31:00,71.3,70.1,30.24,ESE,104,0.0,0.0,96,0.00,,---,0.00,VWS V14.00,2013-07-16 05:31:00,
2013-07-16 01:36:00,71.3,70.1,30.24,ESE,104,0.0,0.0,96,0.00,,---,0.00,VWS V14.00,2013-07-16 05:36:00,
2013-07-16 01:41:00,71.3,70.1,30.24,ESE,104,0.0,0.0,96,0.00,,---,0.00,VWS V14.00,2013-07-16 05:41:00,
2013-07-16 01:46:00,71.2,70.0,30.23,ESE,104,0.0,0.0,96,0.00,,---,0.00,VWS V14.00,2013-07-16 05:46:00,
2013-07-16 01:51:00,71.2,70.0,30.23,ESE,104,0.0,0.0,96,0.00,,---,0.00,VWS V14.00,2013-07-16 05:51:00,
2013-07-16 01:56:00,71.2,70.0,30.23,ESE,104,0.0,0.0,96,0.00,,---,0.00,VWS V14.00,2013-07-16 05:56:00,
2013-07-16 02:01:00,71.1,69.9,30.23,ESE,104,0.0,0.0,96,0.00,,---,0.00,VWS V14.00,2013-07-16 06:01:00,
2013-07-16 02:06:00,71.0,69.8,30.23,ESE,104,0.0,0.0,96,0.00,,---,0.00,VWS V14.00,2013-07-16 06:06:00,
2013-07-16 02:11:00,71.0,69.8,30.23,ESE,104,0.0,0.0,96,0.00,,---,0.00,VWS V14.00,2013-07-16 06:11:00,
2013-07-16 02:16:00,70.9,69.7,30.23,ESE,104,0.0,0.0,96,0.00,,---,0.00,VWS V14.00,2013-07-16 06:16:00,
2013-07-16 02:21:00,70.9,69.7,30.23,ESE,104,0.0,0.0,96,0.00,,---,0.00,VWS V14.00,2013-07-16 06:21:00,
2013-07-16 02:26:00,70.9,69.7,30.23,ESE,104,0.0,0.0,96,0.00,,---,0.00,VWS V14.00,2013-07-16 06:26:00,
2013-07-16 02:31:00,70.9,69.7,30.23,ESE,104,0.0,0.0,96,0.00,,---,0.00,VWS V14.00,2013-07-16 06:31:00,
2013-07-16 02:36:00,70.8,69.6,30.23,ESE,104,0.0,0.0,96,0.00,,---,0.00,VWS V14.00,2013-07-16 06:36:00,
2013-07-16 02:41:00,70.7,69.5,30.23,ESE,104,0.0,0.0,96,0.00,,---,0.00,VWS V14.00,2013-07-16 06:41:00,
2013-07-16 02:46:00,70.6,69.4,30.23,ESE,104,0.0,0.0,96,0.00,,---,0.00,VWS V14.00,2013-07-16 06:46:00,
2013-07-16 02:51:00,70.6,69.4,30.23,ESE,104,0.0,0.0,96,0.00,,---,0.00,VWS V14.00,2013-07-16 06:51:00,
2013-07-16 02:56:00,70.4,69.2,30.23,ESE,104,0.0,0.0,96,0.00,,---,0.00,VWS V14.00,2013-07-16 06:56:00,
2013-07-16 03:01:00,70.4,69.2,30.23,ESE,104,0.0,0.0,96,0.00,,---,0.00,VWS V14.00,2013-07-16 07:01:00,
2013-07-16 03:06:00,70.3,69.1,30.23,ESE,104,0.0,0.0,96,0.00,,---,0.00,VWS V14.00,2013-07-16 07:06:00,
2013-07-16 03:11:00,70.3,69.1,30.23,ESE,104,0.0,0.0,96,0.00,,---,0.00,VWS V14.00,2013-07-16 07:11:00,
2013-07-16 03:16:00,70.2,69.0,30.23,ESE,104,0.0,0.0,96,0.00,,---,0.00,VWS V14.00,2013-07-16 07:16:00,
2013-07-16 03:21:00,70.1,68.9,30.23,ESE,104,0.0,0.0,96,0.00,,---,0.00,VWS V14.00,2013-07-16 07:21:00,
2013-07-16 03:26:00,70.1,68.9,30.23,ESE,104,0.0,0.0,96,0.00,,---,0.00,VWS V14.00,2013-07-16 07:26:00,
2013-07-16 03:31:00,70.1,68.9,30.23,ESE,104,0.0,0.0,96,0.00,,---,0.00,VWS V14.00,2013-07-16 07:31:00,
2013-07-16 03:37:00,70.0,68.8,30.23,ESE,104,0.0,0.0,96,0.00,,---,0.00,VWS V14.00,2013-07-16 07:37:00,
2013-07-16 03:42:00,70.0,68.8,30.23,ESE,104,0.0,0.0,96,0.00,,---,0.00,VWS V14.00,2013-07-16 07:42:00,
2013-07-16 03:47:00,69.9,68.7,30.23,ESE,104,0.0,0.0,96,0.00,,---,0.00,VWS V14.00,2013-07-16 07:47:00,
2013-07-16 03:52:00,69.8,68.6,30.22,ESE,104,0.0,0.0,96,0.00,,---,0.00,VWS V14.00,2013-07-16 07:52:00,
2013-07-16 03:57:00,69.7,68.5,30.23,ESE,104,0.0,0.0,96,0.00,,---,0.00,VWS V14.00,2013-07-16 07:57:00,
2013-07-16 04:02:00,69.7,68.5,30.23,ESE,104,0.0,0.0,96,0.00,,---,0.00,VWS V14.00,2013-07-16 08:02:00,
2013-07-16 04:07:00,69.6,68.4,30.23,ESE,104,0.0,0.0,96,0.00,,---,0.00,VWS V14.00,2013-07-16 08:07:00,
2013-07-16 04:12:00,69.5,68.3,30.23,ESE,104,0.0,0.0,96,0.00,,---,0.00,VWS V14.00,2013-07-16 08:12:00,
2013-07-16 04:17:00,69.5,68.3,30.22,ESE,104,0.0,0.0,96,0.00,,---,0.00,VWS V14.00,2013-07-16 08:17:00,
2013-07-16 04:22:00,69.5,68.3,30.23,ESE,104,0.0,0.0,96,0.00,,---,0.00,VWS V14.00,2013-07-16 08:22:00,
2013-07-16 04:27:00,69.7,68.8,30.22,ESE,104,0.0,0.0,97,0.00,,---,0.00,VWS V14.00,2013-07-16 08:27:00,
2013-07-16 04:32:00,69.7,68.8,30.22,ESE,104,0.0,0.0,97,0.00,,---,0.00,VWS V14.00,2013-07-16 08:32:00,
2013-07-16 04:37:00,69.8,68.9,30.22,ESE,104,0.0,0.0,97,0.00,,---,0.00,VWS V14.00,2013-07-16 08:37:00,
2013-07-16 04:42:00,70.0,69.1,30.22,ESE,104,0.0,0.0,97,0.00,,---,0.00,VWS V14.00,2013-07-16 08:42:00,
2013-07-16 04:47:00,70.0,69.1,30.22,ESE,104,0.0,0.0,97,0.00,,---,0.00,VWS V14.00,2013-07-16 08:47:00,
2013-07-16 04:52:00,70.0,69.1,30.22,ESE,104,0.0,0.0,97,0.00,,---,0.00,VWS V14.00,2013-07-16 08:52:00,
2013-07-16 04:57:00,70.1,69.2,30.22,ESE,104,0.0,0.0,97,0.00,,---,0.00,VWS V14.00,2013-07-16 08:57:00,
2013-07-16 05:02:00,70.1,69.2,30.22,ESE,104,0.0,0.0,97,0.00,,---,0.00,VWS V14.00,2013-07-16 09:02:00,
2013-07-16 05:07:00,70.0,69.1,30.23,ESE,104,0.0,0.0,97,0.00,,---,0.00,VWS V14.00,2013-07-16 09:07:00,
2013-07-16 05:12:00,70.0,69.1,30.22,ESE,104,0.0,0.0,97,0.00,,---,0.00,VWS V14.00,2013-07-16 09:12:00,
2013-07-16 05:17:00,70.0,69.1,30.22,ESE,104,0.0,0.0,97,0.00,,---,0.00,VWS V14.00,2013-07-16 09:17:00,
2013-07-16 05:22:00,70.2,69.3,30.22,ESE,104,0.0,0.0,97,0.00,,---,0.00,VWS V14.00,2013-07-16 09:22:00,
2013-07-16 05:27:00,70.3,69.4,30.22,ESE,104,0.0,0.0,97,0.00,,---,0.00,VWS V14.00,2013-07-16 09:27:00,
2013-07-16 05:32:00,70.4,69.5,30.22,ESE,104,0.0,0.0,97,0.00,,---,0.00,VWS V14.00,2013-07-16 09:32:00,
2013-07-16 05:37:00,70.5,69.6,30.23,ESE,104,0.0,0.0,97,0.00,,---,0.00,VWS V14.00,2013-07-16 09:37:00,
2013-07-16 05:42:00,70.5,69.6,30.23,ESE,104,0.0,0.0,97,0.00,,---,0.00,VWS V14.00,2013-07-16 09:42:00,
2013-07-16 05:47:00,70.4,69.5,30.23,ESE,104,0.0,0.0,97,0.00,,---,0.00,VWS V14.00,2013-07-16 09:47:00,
2013-07-16 05:52:00,70.3,69.4,30.23,ESE,104,0.0,0.0,97,0.00,,---,0.00,VWS V14.00,2013-07-16 09:52:00,
2013-07-16 05:57:00,70.2,69.0,30.24,ESE,104,0.0,0.0,96,0.00,,---,0.00,VWS V14.00,2013-07-16 09:57:00,
2013-07-16 06:02:00,70.0,68.8,30.24,ESE,104,0.0,0.0,96,0.00,,---,0.00,VWS V14.00,2013-07-16 10:02:00,
2013-07-16 06:07:00,69.9,68.7,30.24,ESE,104,0.0,0.0,96,0.00,,---,0.00,VWS V14.00,2013-07-16 10:07:00,
2013-07-16 06:12:00,69.8,68.6,30.24,ESE,104,0.0,0.0,96,0.00,,---,0.00,VWS V14.00,2013-07-16 10:12:00,
2013-07-16 06:17:00,69.6,68.4,30.24,ESE,104,0.0,0.0,96,0.00,,---,0.00,VWS V14.00,2013-07-16 10:17:00,
2013-07-16 06:22:00,69.5,68.3,30.24,ESE,104,0.0,0.0,96,0.00,,---,0.00,VWS V14.00,2013-07-16 10:22:00,
2013-07-16 06:27:00,69.5,68.3,30.24,ESE,104,0.0,0.0,96,0.00,,---,0.00,VWS V14.00,2013-07-16 10:27:00,
2013-07-16 06:32:00,69.5,68.3,30.24,ESE,104,0.0,0.0,96,0.00,,---,0.00,VWS V14.00,2013-07-16 10:32:00,
2013-07-16 06:37:00,69.5,68.3,30.24,ESE,104,0.0,0.0,96,0.00,,---,0.00,VWS V14.00,2013-07-16 10:37:00,
2013-07-16 06:42:00,69.5,68.6,30.24,ESE,104,0.0,0.0,97,0.00,,---,0.00,VWS V14.00,2013-07-16 10:42:00,
2013-07-16 06:47:00,69.7,68.8,30.24,ESE,104,0.0,0.0,97,0.00,,---,0.00,VWS V14.00,2013-07-16 10:47:00,
2013-07-16 06:52:00,69.8,68.9,30.24,ESE,104,0.0,0.0,97,0.00,,---,0.00,VWS V14.00,2013-07-16 10:52:00,
2013-07-16 06:57:00,69.9,69.0,30.24,ESE,104,0.0,0.0,97,0.00,,---,0.00,VWS V14.00,2013-07-16 10:57:00,
2013-07-16 07:02:00,70.0,69.1,30.24,ESE,104,0.0,0.0,97,0.00,,---,0.00,VWS V14.00,2013-07-16 11:02:00,
2013-07-16 07:07:00,70.2,69.3,30.24,ESE,104,0.0,0.0,97,0.00,,---,0.00,VWS V14.00,2013-07-16 11:07:00,
2013-07-16 07:12:00,70.4,69.5,30.24,ESE,104,0.0,0.0,97,0.00,,---,0.00,VWS V14.00,2013-07-16 11:12:00,
2013-07-16 07:17:00,70.6,69.7,30.24,ESE,104,0.0,0.0,97,0.00,,---,0.00,VWS V14.00,2013-07-16 11:17:00,
2013-07-16 07:22:00,70.8,69.9,30.24,ESE,104,0.0,0.0,97,0.00,,---,0.00,VWS V14.00,2013-07-16 11:22:00,
2013-07-16 07:27:00,70.9,70.0,30.25,ESE,104,0.0,0.0,97,0.00,,---,0.00,VWS V14.00,2013-07-16 11:27:00,
2013-07-16 07:32:00,71.0,70.1,30.25,ESE,104,0.0,0.0,97,0.00,,---,0.00,VWS V14.00,2013-07-16 11:32:00,
2013-07-16 07:37:00,71.3,70.4,30.25,ESE,104,0.0,0.0,97,0.00,,---,0.00,VWS V14.00,2013-07-16 11:37:00,
2013-07-16 07:42:00,71.5,70.6,30.25,ESE,104,0.0,0.0,97,0.00,,---,0.00,VWS V14.00,2013-07-16 11:42:00,
2013-07-16 07:47:00,71.8,70.9,30.25,ESE,104,0.0,0.0,97,0.00,,---,0.00,VWS V14.00,2013-07-16 11:47:00,
2013-07-16 07:52:00,72.0,71.1,30.25,ESE,104,0.0,1.0,97,0.00,,---,0.00,VWS V14.00,2013-07-16 11:52:00,
2013-07-16 07:57:00,72.2,71.3,30.25,ESE,104,1.0,1.0,97,0.00,,---,0.00,VWS V14.00,2013-07-16 11:57:00,
2013-07-16 08:02:00,72.4,71.5,30.25,ESE,104,0.0,2.0,97,0.00,,---,0.00,VWS V14.00,2013-07-16 12:02:00,
2013-07-16 08:07:00,72.6,71.7,30.25,ESE,104,0.0,2.0,97,0.00,,---,0.00,VWS V14.00,2013-07-16 12:07:00,
2013-07-16 08:12:00,72.9,72.0,30.25,ESE,104,0.0,2.0,97,0.00,,---,0.00,VWS V14.00,2013-07-16 12:12:00,
2013-07-16 08:17:00,73.1,72.2,30.25,ESE,104,0.0,4.0,97,0.00,,---,0.00,VWS V14.00,2013-07-16 12:17:00,
2013-07-16 08:22:00,73.4,72.5,30.26,ESE,104,0.0,4.0,97,0.00,,---,0.00,VWS V14.00,2013-07-16 12:22:00,
2013-07-16 08:27:00,73.7,72.8,30.26,ESE,104,1.0,4.0,97,0.00,,---,0.00,VWS V14.00,2013-07-16 12:27:00,
2013-07-16 08:32:00,73.9,73.0,30.26,East,86,3.0,6.0,97,0.00,,---,0.00,VWS V14.00,2013-07-16 12:32:00,
2013-07-16 08:37:00,74.0,73.1,30.26,East,96,2.0,6.0,97,0.00,,---,0.00,VWS V14.00,2013-07-16 12:37:00,
2013-07-16 08:42:00,74.2,73.3,30.26,East,95,4.0,6.0,97,0.00,,---,0.00,VWS V14.00,2013-07-16 12:42:00,
2013-07-16 08:47:00,74.3,73.4,30.26,ENE,74,0.0,6.0,97,0.00,,---,0.00,VWS V14.00,2013-07-16 12:47:00,
2013-07-16 08:52:00,74.5,73.6,30.26,ENE,71,1.0,6.0,97,0.00,,---,0.00,VWS V14.00,2013-07-16 12:52:00,
2013-07-16 08:57:00,74.8,73.6,30.26,ENE,73,2.0,3.0,96,0.00,,---,0.00,VWS V14.00,2013-07-16 12:57:00,
2013-07-16 09:02:00,75.1,73.9,30.26,East,86,4.0,4.0,96,0.00,,---,0.00,VWS V14.00,2013-07-16 13:02:00,
2013-07-16 09:07:00,75.3,73.8,30.27,East,92,2.0,4.0,95,0.00,,---,0.00,VWS V14.00,2013-07-16 13:07:00,
2013-07-16 09:12:00,75.7,73.8,30.27,East,92,0.0,4.0,94,0.00,,---,0.00,VWS V14.00,2013-07-16 13:12:00,
2013-07-16 09:17:00,76.1,73.9,30.26,East,92,1.0,5.0,93,0.00,,---,0.00,VWS V14.00,2013-07-16 13:17:00,
2013-07-16 09:22:00,76.4,74.2,30.26,East,92,0.0,5.0,93,0.00,,---,0.00,VWS V14.00,2013-07-16 13:22:00,
2013-07-16 09:27:00,76.8,74.3,30.26,East,93,2.0,4.0,92,0.00,,---,0.00,VWS V14.00,2013-07-16 13:27:00,
2013-07-16 09:32:00,77.3,74.1,30.26,East,95,0.0,5.0,90,0.00,,---,0.00,VWS V14.00,2013-07-16 13:32:00,
2013-07-16 09:37:00,77.8,74.0,30.26,ESE,117,1.0,5.0,88,0.00,,---,0.00,VWS V14.00,2013-07-16 13:37:00,
2013-07-16 09:42:00,78.3,74.1,30.26,ESE,118,1.0,5.0,87,0.00,,---,0.00,VWS V14.00,2013-07-16 13:42:00,
2013-07-16 09:47:00,78.7,73.8,30.26,ESE,115,1.0,5.0,85,0.00,,---,0.00,VWS V14.00,2013-07-16 13:47:00,
2013-07-16 09:52:00,79.1,73.1,30.26,ESE,105,2.0,5.0,82,0.00,,---,0.00,VWS V14.00,2013-07-16 13:52:00,
2013-07-16 09:57:00,79.4,73.8,30.26,ESE,105,0.0,2.0,83,0.00,,---,0.00,VWS V14.00,2013-07-16 13:57:00,
2013-07-16 10:02:00,79.7,73.7,30.26,East,82,3.0,5.0,82,0.00,,---,0.00,VWS V14.00,2013-07-16 14:02:00,
2013-07-16 10:07:00,79.7,73.7,30.26,East,81,1.0,5.0,82,0.00,,---,0.00,VWS V14.00,2013-07-16 14:07:00,
2013-07-16 10:13:00,79.9,73.6,30.27,NW,321,1.0,1.0,81,0.00,,---,0.00,VWS V14.00,2013-07-16 14:13:00,
2013-07-16 10:18:00,80.5,74.1,30.26,East,82,3.0,4.0,81,0.00,,---,0.00,VWS V14.00,2013-07-16 14:18:00,
2013-07-16 10:23:00,80.9,73.8,30.27,East,98,2.0,6.0,79,0.00,,---,0.00,VWS V14.00,2013-07-16 14:23:00,
2013-07-16 10:28:00,80.9,73.8,30.26,East,101,0.0,4.0,79,0.00,,---,0.00,VWS V14.00,2013-07-16 14:28:00,
2013-07-16 10:33:00,80.9,73.4,30.26,ESE,103,1.0,5.0,78,0.00,,---,0.00,VWS V14.00,2013-07-16 14:33:00,
2013-07-16 10:38:00,81.2,73.3,30.26,East,84,3.0,5.0,77,0.00,,---,0.00,VWS V14.00,2013-07-16 14:38:00,
2013-07-16 10:43:00,81.7,74.2,30.26,ENE,76,1.0,5.0,78,0.00,,---,0.00,VWS V14.00,2013-07-16 14:43:00,
2013-07-16 10:48:00,82.0,73.7,30.26,ESE,119,2.0,6.0,76,0.00,,---,0.00,VWS V14.00,2013-07-16 14:48:00,
2013-07-16 10:53:00,82.3,72.8,30.26,SE,127,1.0,6.0,73,0.00,,---,0.00,VWS V14.00,2013-07-16 14:53:00,
2013-07-16 10:58:00,82.5,73.4,30.26,East,81,4.0,8.0,74,0.00,,---,0.00,VWS V14.00,2013-07-16 14:58:00,
2013-07-16 11:03:00,82.4,72.9,30.26,East,87,0.0,8.0,73,0.00,,---,0.00,VWS V14.00,2013-07-16 15:03:00,
2013-07-16 11:08:00,82.4,73.7,30.26,East,96,4.0,8.0,75,0.00,,---,0.00,VWS V14.00,2013-07-16 15:08:00,
2013-07-16 11:13:00,82.6,74.3,30.26,NE,51,3.0,8.0,76,0.00,,---,0.00,VWS V14.00,2013-07-16 15:13:00,
2013-07-16 11:18:00,82.4,73.3,30.26,ENE,69,1.0,8.0,74,0.00,,---,0.00,VWS V14.00,2013-07-16 15:18:00,
2013-07-16 11:23:00,82.4,74.1,30.26,ENE,74,3.0,8.0,76,0.00,,---,0.00,VWS V14.00,2013-07-16 15:23:00,
2013-07-16 11:28:00,82.7,73.6,30.26,ENE,66,3.0,7.0,74,0.00,,---,0.00,VWS V14.00,2013-07-16 15:28:00,
2013-07-16 11:33:00,82.7,73.6,30.26,ENE,57,1.0,8.0,74,0.00,,---,0.00,VWS V14.00,2013-07-16 15:33:00,
2013-07-16 11:38:00,82.8,74.1,30.26,ENE,76,1.0,8.0,75,0.00,,---,0.00,VWS V14.00,2013-07-16 15:38:00,
2013-07-16 11:43:00,83.1,73.1,30.26,NE,53,3.0,8.0,72,0.00,,---,0.00,VWS V14.00,2013-07-16 15:43:00,
2013-07-16 11:48:00,83.3,73.8,30.26,SE,134,5.0,8.0,73,0.00,,---,0.00,VWS V14.00,2013-07-16 15:48:00,
2013-07-16 11:53:00,83.3,73.8,30.26,SE,131,0.0,8.0,73,0.00,,---,0.00,VWS V14.00,2013-07-16 15:53:00,
2013-07-16 11:58:00,83.2,73.2,30.26,ENE,78,3.0,5.0,72,0.00,,---,0.00,VWS V14.00,2013-07-16 15:58:00,
2013-07-16 12:03:00,83.2,73.7,30.26,SE,129,1.0,6.0,73,0.00,,---,0.00,VWS V14.00,2013-07-16 16:03:00,
2013-07-16 12:08:00,83.2,72.8,30.26,East,90,0.0,6.0,71,0.00,,---,0.00,VWS V14.00,2013-07-16 16:08:00,
2013-07-16 12:13:00,83.4,73.4,30.26,East,95,2.0,6.0,72,0.00,,---,0.00,VWS V14.00,2013-07-16 16:13:00,
2013-07-16 12:18:00,83.7,72.5,30.26,ESE,103,1.0,6.0,69,0.00,,---,0.00,VWS V14.00,2013-07-16 16:18:00,
2013-07-16 12:23:00,84.0,73.6,30.26,East,90,2.0,6.0,71,0.00,,---,0.00,VWS V14.00,2013-07-16 16:23:00,
2013-07-16 12:28:00,84.6,73.3,30.25,NE,54,1.0,5.0,69,0.00,,---,0.00,VWS V14.00,2013-07-16 16:28:00,
2013-07-16 12:33:00,84.9,73.6,30.25,East,80,0.0,5.0,69,0.00,,---,0.00,VWS V14.00,2013-07-16 16:33:00,
2013-07-16 12:38:00,84.9,73.6,30.25,ENE,71,1.0,5.0,69,0.00,,---,0.00,VWS V14.00,2013-07-16 16:38:00,
2013-07-16 12:42:00,84.9,73.6,30.25,ENE,70,1.0,5.0,69,0.00,,---,0.00,VWS V14.00,2013-07-16 16:42:00,
2013-07-16 12:48:00,85.2,72.6,30.25,ENE,62,4.0,6.0,66,0.00,,---,0.00,VWS V14.00,2013-07-16 16:48:00,
2013-07-16 12:53:00,85.2,73.4,30.25,NE,49,3.0,6.0,68,0.00,,---,0.00,VWS V14.00,2013-07-16 16:53:00,
2013-07-16 12:57:00,85.2,73.0,30.25,ENE,58,2.0,4.0,67,0.00,,---,0.00,VWS V14.00,2013-07-16 16:57:00,
2013-07-16 13:02:00,85.2,73.9,30.24,ENE,71,0.0,5.0,69,0.00,,---,0.00,VWS V14.00,2013-07-16 17:02:00,
2013-07-16 13:07:00,85.3,74.0,30.24,East,82,3.0,5.0,69,0.00,,---,0.00,VWS V14.00,2013-07-16 17:07:00,
2013-07-16 13:12:00,85.7,73.9,30.24,ENE,75,0.0,5.0,68,0.00,,---,0.00,VWS V14.00,2013-07-16 17:12:00,
2013-07-16 13:17:00,85.9,73.2,30.24,East,82,2.0,5.0,66,0.00,,---,0.00,VWS V14.00,2013-07-16 17:17:00,
2013-07-16 13:22:00,86.1,73.0,30.24,SE,128,1.0,7.0,65,0.00,,---,0.00,VWS V14.00,2013-07-16 17:22:00,
2013-07-16 13:27:00,86.0,73.8,30.24,East,101,2.0,4.0,67,0.00,,---,0.00,VWS V14.00,2013-07-16 17:27:00,
2013-07-16 13:33:00,85.8,72.7,30.24,East,101,4.0,6.0,65,0.00,,---,0.00,VWS V14.00,2013-07-16 17:33:00,
2013-07-16 13:37:00,85.6,73.4,30.24,NNE,28,1.0,6.0,67,0.00,,---,0.00,VWS V14.00,2013-07-16 17:37:00,
2013-07-16 13:42:00,85.9,74.1,30.24,NE,42,1.0,6.0,68,0.00,,---,0.00,VWS V14.00,2013-07-16 17:42:00,
2013-07-16 13:48:00,86.1,72.5,30.24,East,79,1.0,6.0,64,0.00,,---,0.00,VWS V14.00,2013-07-16 17:48:00,
2013-07-16 13:53:00,85.9,73.2,30.24,ENE,72,2.0,6.0,66,0.00,,---,0.00,VWS V14.00,2013-07-16 17:53:00,
2013-07-16 13:58:00,86.0,74.2,30.23,NE,55,1.0,4.0,68,0.00,,---,0.00,VWS V14.00,2013-07-16 17:58:00,
2013-07-16 14:03:00,86.1,73.0,30.24,East,92,2.0,6.0,65,0.00,,---,0.00,VWS V14.00,2013-07-16 18:03:00,
2013-07-16 14:08:00,85.9,72.3,30.23,East,92,2.0,6.0,64,0.00,,---,0.00,VWS V14.00,2013-07-16 18:08:00,
2013-07-16 14:13:00,85.9,72.3,30.23,East,92,2.0,6.0,64,0.00,,---,0.00,VWS V14.00,2013-07-16 18:13:00,
2013-07-16 14:18:00,86.1,73.0,30.23,East,88,0.0,6.0,65,0.00,,---,0.00,VWS V14.00,2013-07-16 18:18:00,
2013-07-16 14:23:00,86.5,73.8,30.23,ESE,105,4.0,7.0,66,0.00,,---,0.00,VWS V14.00,2013-07-16 18:23:00,
2013-07-16 14:28:00,86.4,72.3,30.23,East,88,1.0,4.0,63,0.00,,---,0.00,VWS V14.00,2013-07-16 18:28:00,
2013-07-16 14:33:00,86.3,72.2,30.22,ENE,57,0.0,4.0,63,0.00,,---,0.00,VWS V14.00,2013-07-16 18:33:00,
2013-07-16 14:38:00,86.5,72.9,30.22,ENE,61,2.0,6.0,64,0.00,,---,0.00,VWS V14.00,2013-07-16 18:38:00,
2013-07-16 14:43:00,86.8,73.2,30.22,ENE,77,1.0,6.0,64,0.00,,---,0.00,VWS V14.00,2013-07-16 18:43:00,
2013-07-16 14:48:00,87.0,72.9,30.22,ENE,59,2.0,7.0,63,0.00,,---,0.00,VWS V14.00,2013-07-16 18:48:00,
2013-07-16 14:53:00,87.2,74.0,30.22,ENE,59,1.0,7.0,65,0.00,,---,0.00,VWS V14.00,2013-07-16 18:53:00,
2013-07-16 14:58:00,87.3,72.7,30.22,ENE,66,1.0,3.0,62,0.00,,---,0.00,VWS V14.00,2013-07-16 18:58:00,
2013-07-16 15:03:00,87.7,73.6,30.22,ENE,72,2.0,3.0,63,0.00,,---,0.00,VWS V14.00,2013-07-16 19:03:00,
2013-07-16 15:08:00,88.0,74.8,30.21,East,95,2.0,6.0,65,0.00,,---,0.00,VWS V14.00,2013-07-16 19:08:00,
2013-07-16 15:13:00,87.9,72.3,30.21,ENE,69,3.0,6.0,60,0.00,,---,0.00,VWS V14.00,2013-07-16 19:13:00,
2013-07-16 15:18:00,87.8,72.2,30.21,East,99,2.0,6.0,60,0.00,,---,0.00,VWS V14.00,2013-07-16 19:18:00,
2013-07-16 15:23:00,87.8,72.2,30.21,ESE,112,2.0,6.0,60,0.00,,---,0.00,VWS V14.00,2013-07-16 19:23:00,
2013-07-16 15:28:00,88.0,73.4,30.21,ESE,104,4.0,5.0,62,0.00,,---,0.00,VWS V14.00,2013-07-16 19:28:00,
2013-07-16 15:33:00,88.3,72.2,30.21,ENE,75,2.0,5.0,59,0.00,,---,0.00,VWS V14.00,2013-07-16 19:33:00,
2013-07-16 15:38:00,88.1,73.0,30.21,ENE,74,1.0,5.0,61,0.00,,---,0.00,VWS V14.00,2013-07-16 19:38:00,
2013-07-16 15:43:00,88.0,73.4,30.20,ENE,65,1.0,5.0,62,0.00,,---,0.00,VWS V14.00,2013-07-16 19:43:00,
2013-07-16 15:48:00,88.0,73.4,30.20,ESE,109,1.0,5.0,62,0.00,,---,0.00,VWS V14.00,2013-07-16 19:48:00,
2013-07-16 15:53:00,88.1,73.4,30.20,ENE,63,5.0,6.0,62,0.00,,---,0.00,VWS V14.00,2013-07-16 19:53:00,
2013-07-16 15:58:00,88.1,73.4,30.20,East,99,4.0,8.0,62,0.00,,---,0.00,VWS V14.00,2013-07-16 19:58:00,
2013-07-16 16:03:00,88.1,73.0,30.20,ESE,115,1.0,8.0,61,0.00,,---,0.00,VWS V14.00,2013-07-16 20:03:00,
2013-07-16 16:08:00,88.0,72.9,30.20,East,86,0.0,8.0,61,0.00,,---,0.00,VWS V14.00,2013-07-16 20:08:00,
2013-07-16 16:13:00,87.9,72.8,30.19,ENE,59,1.0,8.0,61,0.00,,---,0.00,VWS V14.00,2013-07-16 20:13:00,
2013-07-16 16:18:00,87.7,73.1,30.19,ENE,58,0.0,8.0,62,0.00,,---,0.00,VWS V14.00,2013-07-16 20:18:00,
2013-07-16 16:23:00,88.1,75.3,30.19,NE,55,2.0,8.0,66,0.00,,---,0.00,VWS V14.00,2013-07-16 20:23:00,
2013-07-16 16:28:00,88.6,72.9,30.19,NE,46,3.0,8.0,60,0.00,,---,0.00,VWS V14.00,2013-07-16 20:28:00,
2013-07-16 16:33:00,88.4,72.3,30.19,SE,134,2.0,8.0,59,0.00,,---,0.00,VWS V14.00,2013-07-16 20:33:00,
2013-07-16 16:38:00,87.9,71.8,30.19,East,99,1.0,8.0,59,0.00,,---,0.00,VWS V14.00,2013-07-16 20:38:00,
2013-07-16 16:43:00,87.7,72.1,30.19,East,99,0.0,8.0,60,0.00,,---,0.00,VWS V14.00,2013-07-16 20:43:00,
2013-07-16 16:48:00,88.0,72.4,30.19,East,99,0.0,8.0,60,0.00,,---,0.00,VWS V14.00,2013-07-16 20:48:00,
2013-07-16 16:53:00,88.6,72.4,30.19,SE,143,4.0,8.0,59,0.00,,---,0.00,VWS V14.00,2013-07-16 20:53:00,
2013-07-16 16:58:00,88.9,72.2,30.19,SE,128,4.0,4.0,58,0.00,,---,0.00,VWS V14.00,2013-07-16 20:58:00,
2013-07-16 17:03:00,89.0,72.3,30.19,SE,125,0.0,7.0,58,0.00,,---,0.00,VWS V14.00,2013-07-16 21:03:00,
2013-07-16 17:08:00,88.8,72.6,30.19,East,96,4.0,7.0,59,0.00,,---,0.00,VWS V14.00,2013-07-16 21:08:00,
2013-07-16 17:13:00,88.3,71.7,30.19,East,88,2.0,7.0,58,0.00,,---,0.00,VWS V14.00,2013-07-16 21:13:00,
2013-07-16 17:18:00,87.9,71.8,30.19,East,85,0.0,7.0,59,0.00,,---,0.00,VWS V14.00,2013-07-16 21:18:00,
2013-07-16 17:23:00,87.9,71.8,30.19,East,86,2.0,7.0,59,0.00,,---,0.00,VWS V14.00,2013-07-16 21:23:00,
2013-07-16 17:27:00,88.3,72.2,30.19,East,89,0.0,3.0,59,0.00,,---,0.00,VWS V14.00,2013-07-16 21:27:00,
2013-07-16 17:32:00,88.7,72.5,30.19,East,97,0.0,4.0,59,0.00,,---,0.00,VWS V14.00,2013-07-16 21:32:00,
2013-07-16 17:37:00,89.1,70.3,30.19,East,95,2.0,6.0,54,0.00,,---,0.00,VWS V14.00,2013-07-16 21:37:00,
2013-07-16 17:42:00,89.3,70.5,30.19,ESE,110,1.0,6.0,54,0.00,,---,0.00,VWS V14.00,2013-07-16 21:42:00,
2013-07-16 17:47:00,89.0,70.8,30.19,ESE,111,2.0,6.0,55,0.00,,---,0.00,VWS V14.00,2013-07-16 21:47:00,
2013-07-16 17:53:00,88.5,70.8,30.19,ESE,112,1.0,6.0,56,0.00,,---,0.00,VWS V14.00,2013-07-16 21:53:00,
2013-07-16 17:58:00,87.9,71.8,30.19,ESE,112,0.0,1.0,59,0.00,,---,0.00,VWS V14.00,2013-07-16 21:58:00,
2013-07-16 18:03:00,87.7,71.6,30.19,ESE,112,0.0,4.0,59,0.00,,---,0.00,VWS V14.00,2013-07-16 22:03:00,
2013-07-16 18:07:00,87.9,71.3,30.18,ESE,112,0.0,4.0,58,0.00,,---,0.00,VWS V14.00,2013-07-16 22:07:00,
2013-07-16 18:12:00,88.4,71.8,30.18,ESE,112,0.0,4.0,58,0.00,,---,0.00,VWS V14.00,2013-07-16 22:12:00,
2013-07-16 18:17:00,89.0,70.8,30.19,SSW,204,3.0,5.0,55,0.00,,---,0.00,VWS V14.00,2013-07-16 22:17:00,
2013-07-16 18:22:00,89.4,71.1,30.19,SSW,205,0.0,5.0,55,0.00,,---,0.00,VWS V14.00,2013-07-16 22:22:00,
2013-07-16 18:27:00,89.6,71.3,30.19,South,186,0.0,3.0,55,0.00,,---,0.00,VWS V14.00,2013-07-16 22:27:00,
2013-07-16 18:32:00,89.5,71.2,30.19,South,185,0.0,3.0,55,0.00,,---,0.00,VWS V14.00,2013-07-16 22:32:00,
2013-07-16 18:37:00,89.4,71.1,30.19,South,185,0.0,3.0,55,0.00,,---,0.00,VWS V14.00,2013-07-16 22:37:00,
2013-07-16 18:42:00,89.3,71.6,30.18,South,185,1.0,3.0,56,0.00,,---,0.00,VWS V14.00,2013-07-16 22:42:00,
2013-07-16 18:47:00,89.2,72.5,30.18,South,185,1.0,3.0,58,0.00,,---,0.00,VWS V14.00,2013-07-16 22:47:00,
2013-07-16 18:52:00,89.0,71.3,30.18,South,185,0.0,3.0,56,0.00,,---,0.00,VWS V14.00,2013-07-16 22:52:00,
2013-07-16 18:57:00,88.9,70.7,30.18,South,184,2.0,3.0,55,0.00,,---,0.00,VWS V14.00,2013-07-16 22:57:00,
2013-07-16 19:02:00,88.8,71.1,30.18,South,184,0.0,3.0,56,0.00,,---,0.00,VWS V14.00,2013-07-16 23:02:00,
2013-07-16 19:07:00,88.7,70.5,30.18,South,184,0.0,3.0,55,0.00,,---,0.00,VWS V14.00,2013-07-16 23:07:00,
2013-07-16 19:12:00,88.7,71.5,30.18,South,188,0.0,3.0,57,0.00,,---,0.00,VWS V14.00,2013-07-16 23:12:00,
2013-07-16 19:17:00,88.7,71.0,30.18,South,188,0.0,3.0,56,0.00,,---,0.00,VWS V14.00,2013-07-16 23:17:00,
2013-07-16 19:22:00,88.6,70.4,30.18,South,180,1.0,3.0,55,0.00,,---,0.00,VWS V14.00,2013-07-16 23:22:00,
2013-07-16 19:27:00,88.5,71.8,30.18,South,180,0.0,1.0,58,0.00,,---,0.00,VWS V14.00,2013-07-16 23:27:00,
2013-07-16 19:32:00,88.4,70.7,30.18,South,180,1.0,2.0,56,0.00,,---,0.00,VWS V14.00,2013-07-16 23:32:00,
2013-07-16 19:37:00,88.1,71.5,30.18,South,178,1.0,4.0,58,0.00,,---,0.00,VWS V14.00,2013-07-16 23:37:00,
2013-07-16 19:42:00,87.8,71.2,30.18,South,178,1.0,4.0,58,0.00,,---,0.00,VWS V14.00,2013-07-16 23:42:00,
2013-07-16 19:47:00,87.3,70.7,30.18,South,178,0.0,4.0,58,0.00,,---,0.00,VWS V14.00,2013-07-16 23:47:00,
2013-07-16 19:52:00,86.8,71.3,30.18,South,178,0.0,4.0,60,0.00,,---,0.00,VWS V14.00,2013-07-16 23:52:00,
2013-07-16 19:57:00,86.5,71.9,30.18,South,178,0.0,0.0,62,0.00,,---,0.00,VWS V14.00,2013-07-16 23:57:00,
2013-07-16 20:02:00,86.2,71.7,30.18,South,178,1.0,1.0,62,0.00,,---,0.00,VWS V14.00,2013-07-17 00:02:00,
2013-07-16 20:07:00,85.9,72.3,30.18,South,178,0.0,1.0,64,0.00,,---,0.00,VWS V14.00,2013-07-17 00:07:00,
2013-07-16 20:12:00,85.6,72.5,30.19,South,178,0.0,1.0,65,0.00,,---,0.00,VWS V14.00,2013-07-17 00:12:00,
2013-07-16 20:17:00,85.3,72.2,30.18,South,178,0.0,1.0,65,0.00,,---,0.00,VWS V14.00,2013-07-17 00:17:00,
2013-07-16 20:22:00,84.8,72.6,30.18,South,178,0.0,1.0,67,0.00,,---,0.00,VWS V14.00,2013-07-17 00:22:00,
2013-07-16 20:27:00,84.3,73.0,30.18,South,178,0.0,1.0,69,0.00,,---,0.00,VWS V14.00,2013-07-17 00:27:00,
2013-07-16 20:32:00,83.9,73.1,30.19,South,178,0.0,1.0,70,0.00,,---,0.00,VWS V14.00,2013-07-17 00:32:00,
2013-07-16 20:37:00,83.5,73.1,30.19,South,178,0.0,1.0,71,0.00,,---,0.00,VWS V14.00,2013-07-17 00:37:00,
2013-07-16 20:42:00,83.0,73.1,30.19,South,178,0.0,1.0,72,0.00,,---,0.00,VWS V14.00,2013-07-17 00:42:00,
2013-07-16 20:47:00,82.6,73.1,30.19,South,178,0.0,1.0,73,0.00,,---,0.00,VWS V14.00,2013-07-17 00:47:00,
2013-07-16 20:52:00,82.1,73.0,30.19,South,178,0.0,1.0,74,0.00,,---,0.00,VWS V14.00,2013-07-17 00:52:00,
2013-07-16 20:57:00,81.7,73.0,30.19,South,178,0.0,0.0,75,0.00,,---,0.00,VWS V14.00,2013-07-17 00:57:00,
2013-07-16 21:02:00,81.3,73.0,30.19,South,178,0.0,0.0,76,0.00,,---,0.00,VWS V14.00,2013-07-17 01:02:00,
2013-07-16 21:08:00,80.9,72.6,30.19,South,178,0.0,0.0,76,0.00,,---,0.00,VWS V14.00,2013-07-17 01:08:00,
2013-07-16 21:13:00,80.3,72.1,30.19,South,178,0.0,0.0,76,0.00,,---,0.00,VWS V14.00,2013-07-17 01:13:00,
2013-07-16 21:18:00,79.8,71.9,30.19,South,178,0.0,1.0,77,0.00,,---,0.00,VWS V14.00,2013-07-17 01:18:00,
2013-07-16 21:23:00,79.3,71.8,30.19,South,178,0.0,1.0,78,0.00,,---,0.00,VWS V14.00,2013-07-17 01:23:00,
2013-07-16 21:28:00,78.9,71.8,30.19,South,178,0.0,0.0,79,0.00,,---,0.00,VWS V14.00,2013-07-17 01:28:00,
2013-07-16 21:33:00,78.5,71.4,30.19,South,178,0.0,0.0,79,0.00,,---,0.00,VWS V14.00,2013-07-17 01:33:00,
2013-07-16 21:38:00,78.2,71.5,30.19,South,178,0.0,0.0,80,0.00,,---,0.00,VWS V14.00,2013-07-17 01:38:00,
2013-07-16 21:43:00,77.8,71.5,30.20,South,178,0.0,0.0,81,0.00,,---,0.00,VWS V14.00,2013-07-17 01:43:00,
2013-07-16 21:48:00,77.6,71.3,30.20,South,178,0.0,0.0,81,0.00,,---,0.00,VWS V14.00,2013-07-17 01:48:00,
2013-07-16 21:53:00,77.3,71.4,30.20,South,178,0.0,0.0,82,0.00,,---,0.00,VWS V14.00,2013-07-17 01:53:00,
2013-07-16 21:58:00,77.1,71.2,30.21,South,178,0.0,0.0,82,0.00,,---,0.00,VWS V14.00,2013-07-17 01:58:00,
2013-07-16 22:03:00,76.8,70.9,30.21,South,178,0.0,0.0,82,0.00,,---,0.00,VWS V14.00,2013-07-17 02:03:00,
2013-07-16 22:08:00,76.6,70.7,30.21,South,178,0.0,0.0,82,0.00,,---,0.00,VWS V14.00,2013-07-17 02:08:00,
2013-07-16 22:13:00,76.4,70.9,30.21,South,178,0.0,0.0,83,0.00,,---,0.00,VWS V14.00,2013-07-17 02:13:00,
2013-07-16 22:18:00,76.2,70.7,30.21,South,178,0.0,0.0,83,0.00,,---,0.00,VWS V14.00,2013-07-17 02:18:00,
2013-07-16 22:23:00,76.0,70.5,30.21,South,178,0.0,0.0,83,0.00,,---,0.00,VWS V14.00,2013-07-17 02:23:00,
2013-07-16 22:28:00,75.8,70.3,30.21,South,178,0.0,0.0,83,0.00,,---,0.00,VWS V14.00,2013-07-17 02:28:00,
2013-07-16 22:33:00,75.6,70.4,30.21,South,178,0.0,0.0,84,0.00,,---,0.00,VWS V14.00,2013-07-17 02:33:00,
2013-07-16 22:38:00,75.3,70.1,30.21,South,178,0.0,0.0,84,0.00,,---,0.00,VWS V14.00,2013-07-17 02:38:00,
2013-07-16 22:43:00,75.2,70.4,30.21,South,178,0.0,0.0,85,0.00,,---,0.00,VWS V14.00,2013-07-17 02:43:00,
2013-07-16 22:48:00,75.0,70.5,30.21,South,178,0.0,0.0,86,0.00,,---,0.00,VWS V14.00,2013-07-17 02:48:00,
2013-07-16 22:53:00,74.9,70.4,30.21,South,178,0.0,0.0,86,0.00,,---,0.00,VWS V14.00,2013-07-17 02:53:00,
2013-07-16 22:58:00,74.7,70.2,30.21,South,178,0.0,0.0,86,0.00,,---,0.00,VWS V14.00,2013-07-17 02:58:00,
2013-07-16 23:03:00,74.6,70.5,30.22,South,178,0.0,0.0,87,0.00,,---,0.00,VWS V14.00,2013-07-17 03:03:00,
2013-07-16 23:08:00,74.5,70.4,30.22,South,178,0.0,1.0,87,0.00,,---,0.00,VWS V14.00,2013-07-17 03:08:00,
2013-07-16 23:13:00,74.4,70.3,30.22,South,178,0.0,1.0,87,0.00,,---,0.00,VWS V14.00,2013-07-17 03:13:00,
2013-07-16 23:17:00,74.3,70.5,30.21,South,178,0.0,1.0,88,0.00,,---,0.00,VWS V14.00,2013-07-17 03:17:00,
2013-07-16 23:22:00,74.2,70.4,30.21,South,178,0.0,1.0,88,0.00,,---,0.00,VWS V14.00,2013-07-17 03:22:00,
2013-07-16 23:27:00,74.1,70.3,30.21,South,178,0.0,0.0,88,0.00,,---,0.00,VWS V14.00,2013-07-17 03:27:00,
2013-07-16 23:32:00,74.0,70.2,30.21,South,178,0.0,0.0,88,0.00,,---,0.00,VWS V14.00,2013-07-17 03:32:00,
2013-07-16 23:37:00,73.9,70.1,30.21,South,178,0.0,0.0,88,0.00,,---,0.00,VWS V14.00,2013-07-17 03:37:00,
2013-07-16 23:42:00,73.7,70.3,30.21,South,178,0.0,0.0,89,0.00,,---,0.00,VWS V14.00,2013-07-17 03:42:00,
2013-07-16 23:47:00,73.5,70.1,30.21,South,178,0.0,0.0,89,0.00,,---,0.00,VWS V14.00,2013-07-17 03:47:00,
2013-07-16 23:52:00,73.4,70.0,30.21,South,178,0.0,0.0,89,0.00,,---,0.00,VWS V14.00,2013-07-17 03:52:00,
2013-07-16 23:57:00,73.3,69.9,30.21,South,178,0.0,0.0,89,0.00,,---,0.00,VWS V14.00,2013-07-17 03:57:00,